Time;durP1;ratioP1;P1;durP2;ratioP2;P2;SDS_P1;SDS_P2;PMS_P1;PMS_P2;Temp;Humidity;BMP_temperature;BMP_pressure;BME280_temperature;BME280_humidity;BME280_pressure;Samples;Min_cycle;Max_cycle;Signal;HPM_P1;HPM_P2
2023/05/22 00:01:42;;;;;;;5.67;4.83;;;16.00;99.90;;;;;;6165579;23;20395;-84
2023/05/22 00:04:19;;;;;;;5.20;4.80;;;15.90;99.90;;;;;;6163736;23;20422;-87
2023/05/22 00:06:47;;;;;;;6.90;4.77;;;16.10;99.90;;;;;;6161699;23;20438;-80
2023/05/22 00:09:16;;;;;;;6.27;4.57;;;16.20;99.90;;;;;;6160209;23;20513;-81
2023/05/22 00:11:47;;;;;;;4.50;4.10;;;16.10;99.90;;;;;;6158203;23;20534;-82
2023/05/22 00:14:17;;;;;;;5.30;4.80;;;16.00;99.90;;;;;;6161522;23;20419;-81
2023/05/22 00:16:47;;;;;;;5.00;4.60;;;15.90;99.90;;;;;;6161633;23;20406;-86
2023/05/22 00:19:17;;;;;;;4.70;4.20;;;15.90;99.90;;;;;;6161358;23;20456;-83
2023/05/22 00:21:47;;;;;;;5.47;4.40;;;15.80;99.90;;;;;;6161529;23;20390;-85
2023/05/22 00:24:14;;;;;;;4.03;3.63;;;15.70;99.90;;;;;;6162399;23;20388;-83
2023/05/22 00:26:42;;;;;;;4.63;4.10;;;15.80;99.90;;;;;;6160629;23;20459;-84
2023/05/22 00:29:11;;;;;;;5.30;4.80;;;15.90;99.90;;;;;;6161255;23;20427;-83
2023/05/22 00:31:38;;;;;;;5.13;4.20;;;15.80;99.90;;;;;;6162724;23;20631;-83
2023/05/22 00:34:05;;;;;;;6.33;5.03;;;15.80;99.90;;;;;;6162976;23;20366;-85
2023/05/22 00:36:32;;;;;;;7.73;5.00;;;15.70;99.90;;;;;;6161445;23;20482;-81
2023/05/22 00:38:59;;;;;;;4.90;4.40;;;15.70;99.90;;;;;;6161798;23;20428;-85
2023/05/22 00:41:27;;;;;;;5.30;4.77;;;15.60;99.90;;;;;;6161348;23;20393;-81
2023/05/22 00:43:54;;;;;;;4.87;4.40;;;15.60;99.90;;;;;;6159854;23;20984;-86
2023/05/22 00:46:25;;;;;;;8.07;4.37;;;15.50;99.90;;;;;;6160297;23;20408;-80
2023/05/22 00:48:51;;;;;;;4.97;4.57;;;15.50;99.90;;;;;;6158649;23;20419;-84
2023/05/22 00:51:20;;;;;;;5.83;4.70;;;15.30;99.90;;;;;;6160057;23;20924;-83
2023/05/22 00:53:48;;;;;;;5.07;4.57;;;15.10;99.90;;;;;;6161080;23;20412;-81
2023/05/22 00:56:16;;;;;;;4.30;3.90;;;15.20;99.90;;;;;;6160485;23;20415;-80
2023/05/22 00:58:43;;;;;;;5.80;5.20;;;15.10;99.90;;;;;;6160684;23;20410;-81
2023/05/22 01:01:10;;;;;;;5.23;4.83;;;15.00;99.90;;;;;;6161545;23;20370;-79
2023/05/22 01:03:43;;;;;;;8.13;4.43;;;15.10;99.90;;;;;;6184568;23;20401;-82
2023/05/22 01:06:13;;;;;;;6.23;4.30;;;15.20;99.90;;;;;;6160858;23;20456;-80
2023/05/22 01:08:40;;;;;;;5.57;4.17;;;15.20;99.90;;;;;;6159399;23;20479;-81
2023/05/22 01:11:31;;;;;;;7.60;5.47;;;15.10;99.90;;;;;;6160132;23;20427;-79
2023/05/22 01:14:15;;;;;;;4.60;4.20;;;15.10;99.90;;;;;;6165175;23;20374;-80
2023/05/22 01:17:00;;;;;;;5.83;5.17;;;15.00;99.90;;;;;;6166337;23;20372;-81
2023/05/22 01:19:46;;;;;;;5.07;4.40;;;15.00;99.90;;;;;;6168958;23;20423;-80
2023/05/22 01:22:42;;;;;;;5.57;5.03;;;14.90;99.90;;;;;;6172874;23;20446;-80
2023/05/22 01:25:12;;;;;;;4.60;4.00;;;14.90;99.90;;;;;;6178240;23;20447;-79
2023/05/22 01:27:57;;;;;;;6.73;4.80;;;14.80;99.90;;;;;;6177537;23;20384;-81
2023/05/22 01:30:36;;;;;;;7.60;5.47;;;14.80;99.90;;;;;;6174892;23;20378;-84
2023/05/22 01:33:07;;;;;;;7.17;4.60;;;14.70;99.90;;;;;;6170320;23;20374;-82
2023/05/22 01:35:37;;;;;;;5.23;4.80;;;14.70;99.90;;;;;;6172745;23;20403;-79
2023/05/22 01:38:06;;;;;;;5.13;4.63;;;14.70;99.90;;;;;;6167616;23;20399;-81
2023/05/22 01:40:34;;;;;;;7.80;5.47;;;14.50;99.90;;;;;;6167317;23;20447;-80
2023/05/22 01:43:02;;;;;;;3.70;3.40;;;14.60;99.90;;;;;;6162460;23;20414;-81
2023/05/22 01:45:30;;;;;;;4.93;4.43;;;14.70;99.90;;;;;;6161321;23;20777;-79
2023/05/22 01:47:58;;;;;;;4.80;4.03;;;14.70;99.90;;;;;;6160481;23;20801;-84
2023/05/22 01:50:27;;;;;;;6.47;5.20;;;14.60;99.90;;;;;;6160024;23;20517;-80
2023/05/22 01:53:12;;;;;;;4.70;4.20;;;14.50;99.90;;;;;;6159668;23;20407;-81
2023/05/22 01:55:45;;;;;;;6.50;4.60;;;14.50;99.90;;;;;;6159818;23;20395;-79
2023/05/22 01:58:38;;;;;;;6.60;4.03;;;14.40;99.90;;;;;;6160105;23;20390;-82
2023/05/22 02:01:07;;;;;;;5.17;4.70;;;14.50;99.90;;;;;;6158412;23;20604;-81
2023/05/22 02:03:36;;;;;;;4.37;4.07;;;14.40;99.90;;;;;;6158883;23;20403;-80
2023/05/22 02:06:08;;;;;;;12.20;4.60;;;14.40;99.90;;;;;;6159403;23;20402;-79
2023/05/22 02:08:37;;;;;;;4.97;3.80;;;14.30;99.90;;;;;;6157660;23;20384;-80
2023/05/22 02:11:06;;;;;;;11.27;4.47;;;14.20;99.90;;;;;;6159742;23;20409;-81
2023/05/22 02:13:33;;;;;;;5.55;4.78;;;14.30;99.90;;;;;;6158062;23;20623;-80
2023/05/22 02:16:02;;;;;;;5.32;4.35;;;14.30;99.90;;;;;;6159747;23;20213;-82
2023/05/22 02:18:30;;;;;;;5.05;3.92;;;14.30;99.90;;;;;;6160499;23;20173;-84
2023/05/22 02:21:01;;;;;;;4.97;4.57;;;14.30;99.90;;;;;;6160663;23;20326;-83
2023/05/22 02:23:31;;;;;;;5.10;4.68;;;14.20;99.90;;;;;;6162459;23;20185;-80
2023/05/22 02:25:59;;;;;;;5.60;5.07;;;14.30;99.90;;;;;;6163196;23;20185;-81
2023/05/22 02:28:27;;;;;;;6.45;4.25;;;14.10;99.90;;;;;;6162675;23;20407;-80
2023/05/22 02:30:53;;;;;;;5.35;4.43;;;14.10;99.90;;;;;;6161692;23;20185;-81
2023/05/22 02:33:21;;;;;;;5.85;4.60;;;14.20;99.90;;;;;;6186589;23;20185;-82
2023/05/22 02:35:48;;;;;;;4.68;4.25;;;14.10;99.90;;;;;;6165980;23;20244;-80
2023/05/22 02:38:15;;;;;;;9.27;6.32;;;14.10;99.90;;;;;;6204136;23;20197;-79
2023/05/22 02:40:42;;;;;;;6.90;4.63;;;14.30;99.90;;;;;;6183215;23;20209;-81
2023/05/22 02:43:09;;;;;;;3.92;3.60;;;14.20;99.90;;;;;;6183029;23;20172;-82
2023/05/22 02:45:36;;;;;;;5.85;4.93;;;14.20;99.90;;;;;;6154266;23;20180;-81
2023/05/22 02:48:03;;;;;;;5.60;4.03;;;14.20;99.90;;;;;;6163161;23;20186;-87
2023/05/22 02:50:30;;;;;;;6.25;4.03;;;14.10;99.90;;;;;;6161673;23;20403;-81
2023/05/22 02:52:57;;;;;;;4.30;3.87;;;14.10;99.90;;;;;;6161737;23;20208;-80
2023/05/22 02:55:24;;;;;;;4.53;4.20;;;14.00;99.90;;;;;;6160607;23;20490;-80
2023/05/22 02:57:52;;;;;;;5.60;4.43;;;14.10;99.90;;;;;;6160823;23;20395;-83
2023/05/22 03:00:21;;;;;;;4.35;3.75;;;14.20;99.90;;;;;;6159372;23;20486;-81
2023/05/22 03:02:49;;;;;;;4.70;4.30;;;14.00;99.90;;;;;;6159002;23;20244;-80
2023/05/22 03:05:16;;;;;;;4.22;3.55;;;14.00;99.90;;;;;;6160810;23;20370;-83
2023/05/22 03:07:44;;;;;;;6.57;4.50;;;14.00;99.90;;;;;;6160459;23;20192;-85
2023/05/22 03:10:14;;;;;;;5.47;4.97;;;14.00;99.90;;;;;;6161267;23;20177;-81
2023/05/22 03:12:43;;;;;;;4.30;4.00;;;14.00;99.90;;;;;;6135124;23;20409;-80
2023/05/22 03:15:10;;;;;;;5.13;4.28;;;14.00;99.90;;;;;;6161287;23;20186;-79
2023/05/22 03:17:37;;;;;;;4.60;4.20;;;13.90;99.90;;;;;;6160472;23;20189;-79
2023/05/22 03:20:07;;;;;;;4.78;4.25;;;13.90;99.90;;;;;;6160055;23;20201;-80
2023/05/22 03:22:34;;;;;;;7.78;4.32;;;14.00;99.90;;;;;;6160569;23;20183;-81
2023/05/22 03:25:05;;;;;;;4.68;4.28;;;14.00;99.90;;;;;;6158888;23;20591;-80
2023/05/22 03:27:32;;;;;;;6.25;4.10;;;14.00;99.90;;;;;;6159904;23;20248;-80
2023/05/22 03:29:59;;;;;;;4.70;4.30;;;14.00;99.90;;;;;;6162094;23;20177;-84
2023/05/22 03:32:26;;;;;;;5.10;4.50;;;14.10;99.90;;;;;;6162173;23;20395;-83
2023/05/22 03:34:55;;;;;;;5.18;4.28;;;14.00;99.90;;;;;;6162392;23;20426;-83
2023/05/22 03:37:25;;;;;;;7.05;4.35;;;14.00;99.90;;;;;;6165257;23;20220;-84
2023/05/22 03:39:52;;;;;;;4.88;4.47;;;14.00;99.90;;;;;;6179717;23;20205;-82
2023/05/22 03:42:21;;;;;;;7.63;4.72;;;14.00;99.90;;;;;;6182733;23;20185;-83
2023/05/22 03:44:51;;;;;;;7.80;4.43;;;14.10;99.90;;;;;;6166691;23;20589;-81
2023/05/22 03:47:19;;;;;;;7.65;4.57;;;14.00;99.90;;;;;;6163244;23;20402;-81
2023/05/22 03:49:46;;;;;;;6.20;4.87;;;14.00;99.90;;;;;;6160833;23;20264;-82
2023/05/22 03:52:13;;;;;;;5.13;4.60;;;14.10;99.90;;;;;;6161973;23;20403;-80
2023/05/22 03:54:43;;;;;;;5.10;4.60;;;14.10;99.90;;;;;;6159663;23;20177;-81
2023/05/22 03:57:09;;;;;;;4.70;4.23;;;14.20;99.90;;;;;;6160585;23;20185;-78
2023/05/22 03:59:36;;;;;;;5.93;4.43;;;14.10;99.90;;;;;;6160094;23;20479;-80
2023/05/22 04:02:04;;;;;;;4.43;4.03;;;14.30;99.90;;;;;;6160435;23;20423;-79
2023/05/22 04:04:32;;;;;;;9.00;4.75;;;14.30;99.90;;;;;;6160418;23;20185;-84
2023/05/22 04:07:01;;;;;;;7.30;5.27;;;14.30;99.90;;;;;;6161171;23;20241;-80
2023/05/22 04:09:30;;;;;;;7.93;5.10;;;14.40;99.90;;;;;;6159649;23;20399;-80
2023/05/22 04:11:57;;;;;;;5.17;4.60;;;14.50;99.90;;;;;;6161867;23;20454;-84
2023/05/22 04:14:26;;;;;;;8.93;4.63;;;14.50;99.90;;;;;;6165574;23;20467;-81
2023/05/22 04:16:55;;;;;;;7.68;5.30;;;14.60;99.90;;;;;;6167231;23;20455;-77
2023/05/22 04:19:21;;;;;;;5.70;5.07;;;14.60;99.90;;;;;;6173305;23;20229;-81
2023/05/22 04:21:49;;;;;;;7.60;5.00;;;14.60;99.90;;;;;;6180555;23;20446;-83
2023/05/22 04:24:17;;;;;;;5.40;4.43;;;14.60;99.90;;;;;;6181810;23;20478;-83
2023/05/22 04:26:45;;;;;;;4.87;4.30;;;14.80;99.90;;;;;;6206633;23;20402;-85
2023/05/22 04:29:13;;;;;;;4.53;4.03;;;14.90;99.90;;;;;;6180187;23;20483;-83
2023/05/22 04:31:53;;;;;;;5.50;4.40;;;14.90;99.90;;;;;;6169729;23;20718;-84
2023/05/22 04:34:22;;;;;;;7.80;4.53;;;15.10;99.90;;;;;;6163140;23;20414;-85
2023/05/22 04:36:51;;;;;;;6.93;4.00;;;15.20;99.90;;;;;;6163455;23;20462;-84
2023/05/22 04:39:25;;;;;;;10.37;5.00;;;15.30;99.90;;;;;;6164760;23;21028;-83
2023/05/22 04:41:54;;;;;;;5.80;4.00;;;15.40;99.90;;;;;;6167482;23;20447;-86
2023/05/22 04:44:23;;;;;;;4.67;4.20;;;15.50;99.90;;;;;;6166542;23;20434;-86
2023/05/22 04:46:51;;;;;;;5.33;3.73;;;15.50;99.90;;;;;;6191329;23;20402;-86
2023/05/22 04:49:23;;;;;;;6.70;4.80;;;15.70;99.90;;;;;;6166887;23;20407;-86
2023/05/22 04:51:52;;;;;;;4.30;3.90;;;15.60;99.90;;;;;;6168588;23;20389;-82
2023/05/22 04:54:20;;;;;;;7.37;4.27;;;15.80;99.90;;;;;;6166896;23;20394;-84
2023/05/22 04:56:47;;;;;;;5.07;4.03;;;15.80;99.90;;;;;;6163870;23;20978;-85
2023/05/22 04:59:18;;;;;;;5.50;5.00;;;15.90;99.90;;;;;;6166441;23;20416;-85
2023/05/22 05:01:46;;;;;;;8.73;4.83;;;15.90;99.90;;;;;;6166461;23;20477;-84
2023/05/22 05:04:31;;;;;;;4.10;3.70;;;16.00;99.90;;;;;;6168097;23;20465;-87
2023/05/22 05:07:03;;;;;;;5.67;4.40;;;16.10;99.90;;;;;;6164977;23;20432;-87
2023/05/22 05:09:32;;;;;;;3.93;3.40;;;16.10;99.90;;;;;;6165819;23;20431;-85
2023/05/22 05:12:09;;;;;;;3.83;3.53;;;16.20;99.90;;;;;;6169710;23;20419;-87
2023/05/22 05:14:36;;;;;;;6.23;3.60;;;16.30;99.90;;;;;;6165748;23;20372;-85
2023/05/22 05:17:10;;;;;;;9.33;4.40;;;16.40;99.90;;;;;;6188802;23;20372;-84
2023/05/22 05:19:39;;;;;;;5.03;4.00;;;16.50;99.90;;;;;;6168693;23;20751;-82
2023/05/22 05:22:13;;;;;;;6.90;4.73;;;16.50;99.90;;;;;;6141988;23;20431;-87
2023/05/22 05:24:48;;;;;;;5.60;4.23;;;16.60;99.90;;;;;;6164553;23;20414;-86
2023/05/22 05:27:20;;;;;;;4.67;3.90;;;16.80;99.90;;;;;;6166034;23;20360;-83
2023/05/22 05:29:48;;;;;;;4.77;4.37;;;16.90;99.90;;;;;;6162413;23;20430;-87
2023/05/22 05:32:19;;;;;;;4.13;3.73;;;17.10;99.90;;;;;;6164540;23;20415;-84
2023/05/22 05:34:51;;;;;;;6.93;4.23;;;17.00;99.90;;;;;;6163488;23;20465;-84
2023/05/22 05:37:22;;;;;;;4.67;4.33;;;17.20;99.90;;;;;;6164035;23;20475;-87
2023/05/22 05:40:10;;;;;;;4.57;3.97;;;17.30;99.90;;;;;;6162380;23;21074;-86
2023/05/22 05:42:42;;;;;;;6.93;4.03;;;17.30;99.90;;;;;;6164678;23;20404;-90
2023/05/22 05:45:09;;;;;;;6.07;4.10;;;17.30;99.90;;;;;;6162831;23;20401;-83
2023/05/22 05:47:40;;;;;;;6.20;4.60;;;17.60;99.90;;;;;;6166771;23;20437;-85
2023/05/22 05:50:08;;;;;;;6.00;4.53;;;17.80;99.90;;;;;;6163965;23;20371;-84
2023/05/22 05:52:44;;;;;;;5.67;3.80;;;18.00;99.90;;;;;;6167805;23;20377;-85
2023/05/22 05:55:25;;;;;;;6.27;4.30;;;18.20;99.90;;;;;;6168471;23;20555;-88
2023/05/22 05:57:53;;;;;;;4.90;4.50;;;18.30;99.90;;;;;;6172605;23;20428;-85
2023/05/22 06:00:30;;;;;;;4.40;4.00;;;18.40;99.90;;;;;;6180408;23;20521;-87
2023/05/22 06:03:03;;;;;;;12.60;5.27;;;18.50;99.90;;;;;;6144622;23;20460;-88
2023/05/22 06:05:34;;;;;;;7.47;4.53;;;18.60;99.90;;;;;;6172749;23;20411;-88
2023/05/22 06:08:07;;;;;;;6.27;4.07;;;18.80;99.90;;;;;;6168429;23;20484;-89
2023/05/22 06:10:48;;;;;;;5.50;3.83;;;18.80;99.90;;;;;;6165709;23;20469;-89
2023/05/22 06:13:19;;;;;;;6.33;5.73;;;18.90;99.90;;;;;;6165323;23;20465;-88
2023/05/22 06:15:49;;;;;;;4.50;4.10;;;19.00;99.90;;;;;;6167234;23;20380;-87
2023/05/22 06:18:18;;;;;;;4.33;3.93;;;19.20;99.90;;;;;;6142288;23;20385;-89
2023/05/22 06:20:53;;;;;;;5.00;4.50;;;19.30;99.90;;;;;;6165107;23;20435;-86
2023/05/22 06:23:24;;;;;;;6.33;4.63;;;19.60;99.90;;;;;;6161465;23;20403;-85
2023/05/22 06:25:58;;;;;;;5.80;3.53;;;19.90;99.90;;;;;;6168346;23;20426;-87
2023/05/22 06:28:28;;;;;;;5.10;4.70;;;19.80;99.90;;;;;;6172600;23;20377;-87
2023/05/22 06:31:00;;;;;;;4.80;4.30;;;19.80;99.90;;;;;;6165408;23;20402;-89
2023/05/22 06:33:28;;;;;;;6.30;4.40;;;19.70;99.90;;;;;;6161943;23;20349;-87
2023/05/22 06:36:11;;;;;;;6.07;3.87;;;19.20;99.90;;;;;;6163989;23;20363;-89
2023/05/22 06:38:48;;;;;;;3.93;3.63;;;19.20;99.90;;;;;;6190986;23;20362;-82
2023/05/22 06:41:24;;;;;;;4.10;3.47;;;19.30;99.90;;;;;;6161956;23;20492;-88
2023/05/22 06:43:54;;;;;;;4.87;3.90;;;20.30;99.90;;;;;;6149144;23;20434;-86
2023/05/22 06:46:22;;;;;;;8.90;3.73;;;21.30;99.90;;;;;;6134971;23;20470;-85
2023/05/22 06:48:54;;;;;;;8.60;4.40;;;21.90;99.90;;;;;;6134357;23;20368;-87
2023/05/22 06:51:31;;;;;;;5.60;4.60;;;22.50;99.90;;;;;;6134163;23;20470;-84
2023/05/22 06:54:05;;;;;;;4.60;4.20;;;23.10;99.90;;;;;;6132214;23;20582;-84
2023/05/22 06:56:34;;;;;;;3.80;3.50;;;23.30;99.90;;;;;;6132231;23;20366;-85
2023/05/22 06:59:03;;;;;;;9.93;4.93;;;23.30;99.90;;;;;;6130938;23;20404;-89
2023/05/22 07:01:33;;;;;;;5.63;4.40;;;23.70;99.90;;;;;;6131516;23;20425;-84
2023/05/22 07:04:04;;;;;;;5.83;4.83;;;23.50;99.90;;;;;;6133560;23;20459;-86
2023/05/22 07:06:32;;;;;;;7.50;4.27;;;23.50;99.90;;;;;;6131492;23;20388;-87
2023/05/22 07:09:00;;;;;;;4.17;3.87;;;23.50;99.90;;;;;;6134033;23;20421;-84
2023/05/22 07:11:29;;;;;;;4.73;4.23;;;23.90;99.90;;;;;;6136335;23;20370;-82
2023/05/22 07:14:02;;;;;;;4.50;3.70;;;24.90;99.90;;;;;;6146236;23;20367;-83
2023/05/22 07:16:30;;;;;;;5.00;3.83;;;25.80;99.90;;;;;;6156399;23;20463;-84
2023/05/22 07:19:01;;;;;;;4.23;3.87;;;25.80;99.90;;;;;;6183525;23;20402;-86
2023/05/22 07:21:30;;;;;;;5.67;4.20;;;27.10;96.10;;;;;;6181102;23;20522;-85
2023/05/22 07:23:58;;;;;;;4.57;4.20;;;27.40;95.80;;;;;;6179748;23;20391;-86
2023/05/22 07:26:29;;;;;;;4.13;3.83;;;28.90;89.00;;;;;;6180373;23;20399;-86
2023/05/22 07:29:00;;;;;;;6.17;4.00;;;29.30;83.80;;;;;;6171130;23;20395;-87
2023/05/22 07:31:34;;;;;;;5.83;4.20;;;29.90;78.10;;;;;;6165803;23;20594;-89
2023/05/22 07:34:07;;;;;;;3.90;3.60;;;28.80;78.10;;;;;;6166211;23;20406;-85
2023/05/22 07:36:50;;;;;;;4.13;3.60;;;29.00;75.90;;;;;;6163228;23;20435;-84
2023/05/22 07:39:18;;;;;;;5.00;4.50;;;28.40;77.10;;;;;;6162832;23;20423;-88
2023/05/22 07:41:48;;;;;;;6.47;4.53;;;30.40;71.80;;;;;;6166801;23;20506;-85
2023/05/22 07:44:19;;;;;;;6.83;4.57;;;30.90;67.50;;;;;;6166799;23;20392;-88
2023/05/22 07:47:00;;;;;;;4.40;4.00;;;30.80;65.30;;;;;;6165176;23;20490;-87
2023/05/22 07:49:30;;;;;;;4.33;3.93;;;31.10;65.20;;;;;;6141515;23;20466;-84
2023/05/22 07:51:58;;;;;;;3.40;3.10;;;30.50;63.90;;;;;;6126500;23;20450;-86
2023/05/22 07:54:27;;;;;;;4.80;4.30;;;31.00;64.60;;;;;;6165923;23;20478;-87
2023/05/22 07:56:57;;;;;;;8.30;4.07;;;31.70;59.80;;;;;;6167616;23;20390;-86
2023/05/22 07:59:27;;;;;;;3.93;3.50;;;29.60;66.00;;;;;;6166687;23;20599;-87
2023/05/22 08:02:03;;;;;;;4.33;3.63;;;30.00;65.10;;;;;;6168258;23;20431;-85
2023/05/22 08:04:50;;;;;;;5.50;3.83;;;29.70;59.50;;;;;;6166473;23;20427;-88
2023/05/22 08:07:18;;;;;;;4.10;3.80;;;31.50;58.10;;;;;;6167961;23;20395;-86
2023/05/22 08:09:52;;;;;;;4.83;3.60;;;32.40;57.30;;;;;;6168711;23;20418;-89
2023/05/22 08:12:21;;;;;;;4.83;3.80;;;30.30;59.90;;;;;;6169193;23;20384;-90
2023/05/22 08:14:50;;;;;;;4.20;3.80;;;28.60;64.20;;;;;;6168267;23;20442;-88
2023/05/22 08:17:25;;;;;;;3.60;3.30;;;28.40;66.00;;;;;;6188397;23;20380;-86
2023/05/22 08:19:53;;;;;;;3.80;3.50;;;29.60;64.00;;;;;;6149904;23;20503;-87
2023/05/22 08:22:23;;;;;;;3.57;3.23;;;31.10;59.80;;;;;;6160463;23;20439;-86
2023/05/22 08:24:56;;;;;;;6.60;4.07;;;31.30;56.50;;;;;;6142252;23;20455;-84
2023/05/22 08:27:23;;;;;;;3.50;3.20;;;31.50;57.20;;;;;;6137076;23;20411;-87
2023/05/22 08:29:51;;;;;;;4.00;3.60;;;31.40;56.00;;;;;;6137250;23;20803;-88
2023/05/22 08:32:18;;;;;;;4.00;3.70;;;30.60;57.50;;;;;;6138898;23;20738;-88
2023/05/22 08:34:50;;;;;;;4.80;4.40;;;31.70;55.80;;;;;;6137957;23;20442;-87
2023/05/22 08:37:17;;;;;;;4.13;3.73;;;31.30;55.80;;;;;;6159727;23;20409;-88
2023/05/22 08:40:09;;;;;;;4.50;3.70;;;31.20;56.00;;;;;;6134465;23;20403;-89
2023/05/22 08:42:41;;;;;;;3.93;3.30;;;31.10;56.30;;;;;;6130628;23;20471;-89
2023/05/22 08:45:14;;;;;;;3.37;3.07;;;31.50;56.30;;;;;;6165288;23;20479;-90
2023/05/22 08:47:44;;;;;;;4.10;3.17;;;33.30;53.00;;;;;;6149603;23;20832;-87
2023/05/22 08:50:12;;;;;;;4.00;2.93;;;34.50;51.20;;;;;;6167687;23;20403;-88
2023/05/22 08:52:52;;;;;;;4.13;3.77;;;34.90;49.60;;;;;;6165694;23;20433;-85
2023/05/22 08:55:25;;;;;;;3.87;2.93;;;33.80;49.30;;;;;;6166356;23;20435;-90
2023/05/22 08:57:55;;;;;;;4.67;3.20;;;32.60;49.90;;;;;;6163966;23;20387;-88
2023/05/22 09:00:24;;;;;;;4.20;3.47;;;33.90;49.80;;;;;;6164664;23;20497;-87
2023/05/22 09:02:54;;;;;;;4.70;3.20;;;34.30;48.20;;;;;;6163023;23;20446;-87
2023/05/22 09:05:25;;;;;;;4.40;3.00;;;34.40;46.30;;;;;;6166391;23;20372;-88
2023/05/22 09:07:58;;;;;;;7.07;3.33;;;33.30;47.40;;;;;;6165980;23;20604;-88
2023/05/22 09:10:45;;;;;;;4.70;3.57;;;32.90;47.60;;;;;;6164028;23;20444;-88
2023/05/22 09:13:27;;;;;;;4.63;2.87;;;31.00;49.20;;;;;;6167326;23;20463;-88
2023/05/22 09:16:09;;;;;;;3.43;3.13;;;30.30;49.70;;;;;;6167192;23;20440;-86
2023/05/22 09:18:38;;;;;;;4.90;3.20;;;29.10;51.40;;;;;;6166468;23;20402;-86
2023/05/22 09:21:08;;;;;;;5.93;3.23;;;28.50;53.40;;;;;;6167420;23;20431;-86
2023/05/22 09:23:59;;;;;;;4.00;3.60;;;29.10;54.30;;;;;;6165300;23;20399;-86
2023/05/22 09:26:28;;;;;;;3.50;2.70;;;29.30;53.60;;;;;;6165985;23;20900;-85
2023/05/22 09:28:58;;;;;;;3.67;2.87;;;28.60;53.00;;;;;;6166745;23;20389;-83
2023/05/22 09:31:28;;;;;;;3.70;3.40;;;27.00;53.70;;;;;;6164478;23;20399;-85
2023/05/22 09:34:06;;;;;;;3.93;2.73;;;25.90;56.40;;;;;;6162508;23;20417;-84
2023/05/22 09:36:36;;;;;;;4.33;2.90;;;25.80;58.20;;;;;;6189773;23;20403;-89
2023/05/22 09:39:09;;;;;;;2.77;2.57;;;26.10;55.80;;;;;;6165333;23;20466;-90
2023/05/22 09:41:39;;;;;;;2.73;2.40;;;25.70;54.80;;;;;;6164023;23;20427;-83
2023/05/22 09:44:15;;;;;;;3.40;2.97;;;25.30;56.60;;;;;;6167663;23;20450;-85
2023/05/22 09:46:56;;;;;;;7.17;2.93;;;25.40;56.40;;;;;;6169200;23;20452;-86
2023/05/22 09:49:24;;;;;;;2.83;2.53;;;25.70;55.90;;;;;;6168134;23;20407;-90
2023/05/22 09:51:55;;;;;;;3.90;3.10;;;25.80;55.70;;;;;;6166562;23;20465;-88
2023/05/22 09:54:30;;;;;;;3.80;3.40;;;25.70;54.70;;;;;;6165455;23;20450;-84
2023/05/22 09:57:02;;;;;;;3.07;2.77;;;25.50;55.50;;;;;;6169076;23;20414;-85
2023/05/22 09:59:33;;;;;;;2.90;2.70;;;25.30;56.20;;;;;;6171199;23;20388;-86
2023/05/22 10:02:06;;;;;;;5.63;2.67;;;25.60;56.60;;;;;;6173009;23;20721;-85
2023/05/22 10:04:41;;;;;;;3.40;2.93;;;25.60;56.80;;;;;;6153553;23;20546;-84
2023/05/22 10:07:11;;;;;;;3.70;2.60;;;25.70;56.60;;;;;;6180701;23;20503;-85
2023/05/22 10:09:41;;;;;;;3.00;2.70;;;26.10;56.70;;;;;;6178573;23;20458;-84
2023/05/22 10:12:18;;;;;;;8.30;3.10;;;25.90;56.20;;;;;;6147334;23;20519;-86
2023/05/22 10:14:47;;;;;;;3.90;3.20;;;26.20;56.20;;;;;;6167886;23;20411;-85
2023/05/22 10:17:18;;;;;;;2.90;2.60;;;26.30;54.80;;;;;;6141367;23;20426;-89
2023/05/22 10:19:49;;;;;;;4.07;2.93;;;25.80;54.00;;;;;;6142898;23;20475;-87
2023/05/22 10:22:20;;;;;;;3.20;2.90;;;25.60;54.60;;;;;;6146652;23;20442;-87
2023/05/22 10:24:47;;;;;;;3.57;2.90;;;25.70;54.70;;;;;;6161388;23;20457;-87
2023/05/22 10:27:15;;;;;;;3.07;2.67;;;26.00;54.70;;;;;;6151862;23;20403;-86
2023/05/22 10:29:55;;;;;;;5.27;3.00;;;26.40;55.60;;;;;;6175348;23;20419;-89
2023/05/22 10:32:37;;;;;;;3.07;2.70;;;25.90;56.50;;;;;;6179579;23;20379;-85
2023/05/22 10:35:42;;;;;;;3.37;2.47;;;25.50;56.90;;;;;;6179490;23;20380;-86
2023/05/22 10:38:45;;;;;;;4.17;3.37;;;25.40;58.90;;;;;;6180187;23;20418;-86
2023/05/22 10:41:13;;;;;;;8.13;3.10;;;25.20;59.40;;;;;;6181173;23;20414;-83
2023/05/22 10:43:44;;;;;;;7.50;3.00;;;25.20;59.50;;;;;;6169537;23;20435;-85
2023/05/22 10:46:14;;;;;;;2.40;2.20;;;25.20;59.80;;;;;;6182312;23;20404;-87
2023/05/22 10:48:47;;;;;;;4.00;2.90;;;25.00;61.00;;;;;;6175067;23;20384;-87
2023/05/22 10:51:24;;;;;;;3.93;2.87;;;24.70;61.60;;;;;;6170697;23;20411;-89
2023/05/22 10:54:04;;;;;;;3.17;2.87;;;24.50;62.40;;;;;;6170013;23;20376;-86
2023/05/22 10:56:39;;;;;;;3.23;2.93;;;24.40;62.60;;;;;;6170183;23;20391;-87
2023/05/22 10:59:09;;;;;;;4.20;3.10;;;24.60;62.90;;;;;;6168720;23;20374;-86
2023/05/22 11:01:41;;;;;;;4.30;3.20;;;24.40;63.20;;;;;;6171976;23;20431;-90
2023/05/22 11:04:10;;;;;;;2.60;2.40;;;24.30;63.10;;;;;;6181529;23;20437;-88
2023/05/22 11:07:00;;;;;;;2.97;2.30;;;23.60;64.20;;;;;;6180982;23;20382;-86
2023/05/22 11:09:42;;;;;;;3.60;2.43;;;23.60;65.80;;;;;;6173450;23;20376;-87
2023/05/22 11:12:29;;;;;;;2.63;2.43;;;23.50;66.60;;;;;;6177750;23;20403;-87
2023/05/22 11:15:31;;;;;;;3.13;2.83;;;23.70;66.20;;;;;;6180774;23;20395;-85
2023/05/22 11:18:02;;;;;;;3.43;2.53;;;23.60;67.40;;;;;;6166105;23;20502;-84
2023/05/22 11:20:38;;;;;;;4.60;2.73;;;23.30;69.00;;;;;;6167892;23;20440;-84
2023/05/22 11:23:07;;;;;;;5.77;3.03;;;23.50;70.30;;;;;;6168951;23;20614;-86
2023/05/22 11:25:36;;;;;;;4.27;3.00;;;23.90;70.70;;;;;;6169242;23;20407;-87
2023/05/22 11:28:09;;;;;;;4.60;2.83;;;24.20;68.70;;;;;;6169079;23;20399;-85
2023/05/22 11:30:41;;;;;;;3.77;3.00;;;24.20;67.80;;;;;;6169772;23;20368;-89
2023/05/22 11:33:12;;;;;;;4.10;3.70;;;24.30;69.30;;;;;;6167276;23;20418;-85
2023/05/22 11:35:43;;;;;;;3.57;2.83;;;24.10;66.70;;;;;;6166265;23;20479;-86
2023/05/22 11:38:14;;;;;;;5.10;3.17;;;23.90;69.40;;;;;;6166117;23;20410;-84
2023/05/22 11:40:42;;;;;;;3.10;2.40;;;24.00;70.50;;;;;;6167835;23;20455;-86
2023/05/22 11:43:14;;;;;;;5.47;2.60;;;24.20;69.40;;;;;;6169700;23;20453;-87
2023/05/22 11:45:43;;;;;;;4.30;3.20;;;24.50;68.80;;;;;;6168722;23;20407;-85
2023/05/22 11:48:43;;;;;;;3.23;2.90;;;24.60;67.80;;;;;;6178773;23;20383;-84
2023/05/22 11:51:18;;;;;;;3.93;2.70;;;24.40;66.50;;;;;;6183265;23;20378;-83
2023/05/22 11:53:50;;;;;;;3.13;2.50;;;24.60;66.90;;;;;;6181066;23;20391;-86
2023/05/22 11:56:25;;;;;;;4.23;3.83;;;24.20;67.20;;;;;;6181292;23;20386;-86
2023/05/22 11:58:54;;;;;;;4.80;2.93;;;24.10;68.20;;;;;;6157054;23;20395;-87
2023/05/22 12:01:29;;;;;;;2.70;2.50;;;24.10;68.80;;;;;;6180868;23;20403;-86
2023/05/22 12:03:56;;;;;;;4.73;3.37;;;24.20;68.90;;;;;;6181576;23;20418;-84
2023/05/22 12:06:34;;;;;;;3.47;2.93;;;24.40;67.00;;;;;;6175631;23;20412;-88
2023/05/22 12:09:11;;;;;;;4.20;3.03;;;24.10;68.30;;;;;;6168688;23;20813;-88
2023/05/22 12:11:46;;;;;;;5.93;3.23;;;23.80;69.60;;;;;;6169875;23;20401;-86
2023/05/22 12:14:17;;;;;;;3.40;2.73;;;23.70;70.50;;;;;;6172842;23;20385;-86
2023/05/22 12:16:50;;;;;;;5.87;2.80;;;23.60;71.30;;;;;;6172096;23;20640;-86
2023/05/22 12:19:20;;;;;;;3.20;2.90;;;23.70;72.30;;;;;;6171434;23;20380;-87
2023/05/22 12:21:53;;;;;;;3.93;2.80;;;23.90;71.40;;;;;;6168698;23;20465;-87
2023/05/22 12:24:22;;;;;;;11.93;3.27;;;23.80;71.80;;;;;;6166650;23;20417;-86
2023/05/22 12:26:53;;;;;;;4.57;3.20;;;23.90;70.40;;;;;;6167665;23;20419;-83
2023/05/22 12:29:23;;;;;;;4.90;2.50;;;23.90;68.70;;;;;;6167812;23;20451;-91
2023/05/22 12:31:51;;;;;;;2.60;2.40;;;23.90;70.60;;;;;;6170065;23;20410;-86
2023/05/22 12:34:22;;;;;;;5.40;3.23;;;23.90;71.60;;;;;;6164615;23;20410;-89
2023/05/22 12:36:50;;;;;;;4.03;3.47;;;24.00;72.20;;;;;;6168081;23;20430;-88
2023/05/22 12:39:26;;;;;;;3.77;3.00;;;24.10;71.00;;;;;;6136212;23;20482;-87
2023/05/22 12:42:01;;;;;;;3.40;3.10;;;24.20;71.10;;;;;;6175018;23;20418;-85
2023/05/22 12:44:44;;;;;;;3.30;2.80;;;24.10;71.50;;;;;;6175111;23;20419;-86
2023/05/22 12:47:13;;;;;;;3.03;2.63;;;23.80;71.90;;;;;;6178893;23;20395;-86
2023/05/22 12:49:40;;;;;;;3.90;3.10;;;24.00;71.10;;;;;;6180159;23;20482;-85
2023/05/22 12:52:12;;;;;;;6.37;3.00;;;23.90;70.90;;;;;;6172631;23;20588;-87
2023/05/22 12:54:52;;;;;;;3.33;2.90;;;24.10;72.00;;;;;;6173226;23;20395;-89
2023/05/22 12:57:23;;;;;;;3.83;3.47;;;24.60;69.80;;;;;;6176884;23;20463;-88
2023/05/22 13:00:05;;;;;;;2.83;2.40;;;24.60;68.70;;;;;;6147019;23;20414;-85
2023/05/22 13:02:42;;;;;;;3.70;3.03;;;24.70;67.70;;;;;;6172651;23;20518;-87
2023/05/22 13:05:12;;;;;;;3.27;2.90;;;24.60;67.50;;;;;;6110835;23;20435;-88
2023/05/22 13:07:43;;;;;;;4.70;3.20;;;24.70;66.40;;;;;;6181904;23;20441;-86
2023/05/22 13:10:29;;;;;;;3.33;3.03;;;24.80;67.50;;;;;;6145679;23;20518;-88